createdAt,value
2018-04-16T00:01:35.468Z,27.93
2018-04-16T00:05:38.022Z,28.53
2018-04-16T00:09:41.336Z,26.63
2018-04-16T00:13:43.868Z,24.67
2018-04-16T00:17:47.183Z,26.20
2018-04-16T00:21:49.724Z,22.37
2018-04-16T00:25:52.249Z,24.63
2018-04-16T00:29:55.552Z,20.57
2018-04-16T00:34:03.695Z,20.27
2018-04-16T00:38:11.804Z,20.30
2018-04-16T00:42:20.096Z,25.67
2018-04-16T00:46:29.063Z,22.83
2018-04-16T00:50:37.351Z,24.17
2018-04-16T00:59:21.295Z,22.83
2018-04-16T01:03:29.447Z,20.13
2018-04-16T01:07:37.573Z,23.17
2018-04-16T01:11:46.461Z,22.83
2018-04-16T01:15:54.794Z,23.33
2018-04-16T01:20:03.004Z,19.90
2018-04-16T01:24:11.193Z,17.07
2018-04-16T01:28:20.140Z,20.20
2018-04-16T01:32:28.341Z,21.73
2018-04-16T01:36:36.589Z,23.30
2018-04-16T01:40:44.670Z,23.33
2018-04-16T01:44:52.922Z,22.60
2018-04-16T01:53:38.075Z,22.67
2018-04-16T01:57:46.193Z,21.63
2018-04-16T02:01:54.433Z,21.67
2018-04-16T02:06:03.284Z,17.23
2018-04-16T02:10:11.464Z,17.20
2018-04-16T02:14:19.723Z,19.80
2018-04-16T02:18:27.903Z,17.23
2018-04-16T02:27:23.555Z,17.43
2018-04-16T02:31:31.716Z,18.23
2018-04-16T02:35:39.827Z,19.33
2018-04-16T02:39:47.957Z,16.83
2018-04-16T02:43:56.105Z,24.00
2018-04-16T02:48:04.379Z,24.47
2018-04-16T02:52:12.500Z,25.60
2018-04-16T02:56:20.652Z,25.07
2018-04-16T03:00:29.578Z,28.43
2018-04-16T03:04:37.712Z,29.93
2018-04-16T03:08:46.619Z,30.33
2018-04-16T03:12:54.824Z,31.03
2018-04-16T03:17:02.957Z,32.27
2018-04-16T03:21:11.047Z,30.70
2018-04-16T03:25:19.356Z,34.13
2018-04-16T03:29:27.568Z,30.63
2018-04-16T03:33:35.859Z,24.17
2018-04-16T03:37:43.975Z,26.40
2018-04-16T03:41:52.233Z,26.50
2018-04-16T03:46:00.467Z,26.23
2018-04-16T03:50:08.725Z,28.80
2018-04-16T03:54:12.033Z,29.57
2018-04-16T03:58:14.572Z,33.77
2018-04-16T04:02:17.107Z,31.13
2018-04-16T04:06:19.646Z,31.97
2018-04-16T04:10:22.160Z,29.23
2018-04-16T04:14:25.473Z,34.53
2018-04-16T04:18:28.023Z,34.10
2018-04-16T04:22:42.387Z,31.43
2018-04-16T04:26:56.739Z,37.57
2018-04-16T04:30:59.264Z,38.07
2018-04-16T04:35:01.795Z,34.63
2018-04-16T04:39:04.336Z,31.90
2018-04-16T04:43:06.876Z,29.53
2018-04-16T04:47:09.410Z,24.77
2018-04-16T04:51:11.922Z,27.07
2018-04-16T04:55:14.455Z,22.00
2018-04-16T04:59:17.753Z,20.00
2018-04-16T05:03:21.060Z,19.37
2018-04-16T05:07:24.366Z,20.63
2018-04-16T05:11:27.646Z,18.23
2018-04-16T05:15:30.188Z,18.70
2018-04-16T05:19:32.724Z,23.00
2018-04-16T05:23:35.319Z,26.40
2018-04-16T05:27:37.813Z,32.73
2018-04-16T05:31:41.091Z,40.50
2018-04-16T05:35:43.628Z,40.33
2018-04-16T05:39:46.159Z,34.80
2018-04-16T05:43:48.718Z,37.17
2018-04-16T05:47:51.260Z,40.90
2018-04-16T05:51:54.539Z,44.70
2018-04-16T05:55:57.084Z,42.83
2018-04-16T05:59:59.619Z,45.90
2018-04-16T06:04:02.188Z,50.83
2018-04-16T06:08:04.756Z,53.57
2018-04-16T06:12:07.276Z,55.67
2018-04-16T06:16:10.586Z,57.83
2018-04-16T06:20:13.882Z,52.37
2018-04-16T06:24:17.191Z,54.40
2018-04-16T06:28:20.489Z,58.20
2018-04-16T06:32:23.779Z,52.17
2018-04-16T06:36:26.392Z,53.77
2018-04-16T06:40:28.948Z,50.50
2018-04-16T06:44:31.508Z,53.10
2018-04-16T06:48:34.045Z,54.40
2018-04-16T06:52:37.326Z,50.83
2018-04-16T06:56:39.866Z,48.23
2018-04-16T07:00:43.191Z,52.07
2018-04-16T07:04:45.740Z,53.70
2018-04-16T07:08:48.301Z,51.97
2018-04-16T07:12:51.593Z,50.50
2018-04-16T07:16:54.900Z,47.33
2018-04-16T07:20:58.209Z,44.10
2018-04-16T07:25:01.511Z,44.73
2018-04-16T07:29:04.818Z,41.63
2018-04-16T07:33:07.365Z,36.37
2018-04-16T07:37:09.921Z,37.27
2018-04-16T07:41:12.461Z,35.27
2018-04-16T07:45:15.775Z,33.70
2018-04-16T07:49:19.077Z,29.73
2018-04-16T07:53:22.372Z,29.13
2018-04-16T07:57:25.680Z,30.40
2018-04-16T08:01:29.008Z,30.70
2018-04-16T08:05:31.552Z,29.83
2018-04-16T08:09:34.095Z,33.83
2018-04-16T08:13:36.611Z,26.87
2018-04-16T08:17:39.146Z,21.30
2018-04-16T08:21:41.688Z,18.80
2018-04-16T08:25:44.232Z,21.33
2018-04-16T08:29:46.790Z,14.30
2018-04-16T08:33:49.324Z,14.67
2018-04-16T08:37:51.867Z,13.70
2018-04-16T08:41:54.407Z,13.37
2018-04-16T08:45:56.960Z,13.83
2018-04-16T08:49:59.501Z,12.50
2018-04-16T08:54:02.777Z,13.57
2018-04-16T08:58:05.311Z,12.57
2018-04-16T09:02:07.858Z,12.27
2018-04-16T09:06:10.403Z,11.10
2018-04-16T09:10:12.940Z,11.07
2018-04-16T09:14:16.258Z,10.43
2018-04-16T09:18:18.774Z,10.00
2018-04-16T09:22:21.307Z,9.70
2018-04-16T09:26:24.611Z,8.30
2018-04-16T09:30:27.915Z,9.90
2018-04-16T09:34:31.212Z,8.43
2018-04-16T09:38:34.487Z,8.67
2018-04-16T09:42:37.024Z,8.63
2018-04-16T09:46:39.564Z,12.67
2018-04-16T09:50:42.119Z,12.60
2018-04-16T09:54:44.650Z,11.73
2018-04-16T09:58:47.168Z,11.53
2018-04-16T10:02:55.284Z,12.17
2018-04-16T10:06:57.828Z,11.67
2018-04-16T10:11:00.368Z,11.70
2018-04-16T10:15:02.905Z,13.40
2018-04-16T10:19:05.419Z,13.97
2018-04-16T10:23:07.947Z,13.83
2018-04-16T10:27:10.488Z,15.17
2018-04-16T10:31:13.045Z,13.83
2018-04-16T10:35:16.361Z,14.40
2018-04-16T10:39:19.642Z,15.40
2018-04-16T10:43:22.181Z,14.90
2018-04-16T10:47:24.723Z,15.97
2018-04-16T10:51:28.027Z,15.50
2018-04-16T10:55:31.360Z,15.20
2018-04-16T10:59:34.620Z,15.57
2018-04-16T11:03:37.155Z,14.17
2018-04-16T11:07:39.692Z,13.07
2018-04-16T11:11:42.224Z,11.60
2018-04-16T11:15:44.759Z,15.90
2018-04-16T11:19:47.281Z,15.53
2018-04-16T11:23:49.820Z,15.13
2018-04-16T11:27:52.355Z,15.30
2018-04-16T11:31:54.908Z,15.23
2018-04-16T11:35:58.217Z,14.67
2018-04-16T11:40:01.500Z,14.03
2018-04-16T11:44:04.039Z,12.57
2018-04-16T11:48:06.575Z,11.73
2018-04-16T11:52:09.106Z,12.30
2018-04-16T11:56:11.645Z,12.20
2018-04-16T12:00:14.175Z,13.07
2018-04-16T12:04:16.762Z,12.80
2018-04-16T12:08:20.031Z,13.30
2018-04-16T12:12:23.327Z,13.27
2018-04-16T12:16:26.624Z,13.60
2018-04-16T12:20:29.145Z,13.70
2018-04-16T12:24:31.691Z,13.57
2018-04-16T12:28:34.235Z,13.83
2018-04-16T12:32:36.784Z,16.67
2018-04-16T12:36:40.100Z,17.57
2018-04-16T12:40:42.653Z,17.43
2018-04-16T12:44:45.165Z,18.13
2018-04-16T12:48:47.704Z,18.90
2018-04-16T12:52:50.241Z,18.30
2018-04-16T12:56:52.788Z,17.57
2018-04-16T13:00:55.386Z,18.13
2018-04-16T13:04:58.667Z,17.27
2018-04-16T13:09:01.200Z,13.60
2018-04-16T13:13:03.734Z,13.77
2018-04-16T13:17:06.270Z,14.03
2018-04-16T13:21:08.813Z,12.20
2018-04-16T13:25:11.344Z,12.80
2018-04-16T13:29:13.879Z,13.23
2018-04-16T13:33:16.417Z,12.70
2018-04-16T13:37:18.959Z,11.80
2018-04-16T13:41:21.491Z,11.27
2018-04-16T13:45:24.011Z,12.03
2018-04-16T13:49:26.555Z,12.17
2018-04-16T13:53:29.096Z,11.90
2018-04-16T13:57:32.401Z,11.57
2018-04-16T14:01:35.704Z,11.43
2018-04-16T14:05:38.995Z,11.03
2018-04-16T14:09:41.538Z,11.60
2018-04-16T14:13:44.076Z,11.67
2018-04-16T14:17:46.607Z,12.30
2018-04-16T14:21:49.144Z,14.10
2018-04-16T14:25:51.659Z,13.47
2018-04-16T14:29:54.188Z,9.47
2018-04-16T14:33:56.739Z,11.20
2018-04-16T14:37:59.279Z,10.57
2018-04-16T14:42:01.825Z,10.33
2018-04-16T14:46:04.345Z,7.27
2018-04-16T14:50:06.876Z,6.93
2018-04-16T14:54:09.409Z,7.97
2018-04-16T14:58:11.935Z,8.13
2018-04-16T15:02:14.496Z,8.57
2018-04-16T15:06:16.992Z,8.53
2018-04-16T15:10:20.285Z,7.90
2018-04-16T15:14:23.598Z,7.53
2018-04-16T15:18:26.899Z,6.73
2018-04-16T15:22:30.195Z,6.63
2018-04-16T15:26:33.499Z,7.47
2018-04-16T15:30:36.781Z,6.77
2018-04-16T15:34:39.302Z,6.40
2018-04-16T15:38:41.828Z,7.07
2018-04-16T15:42:44.371Z,6.53
2018-04-16T15:46:46.900Z,5.87
2018-04-16T15:50:49.404Z,5.60
2018-04-16T15:54:51.944Z,5.20
2018-04-16T15:58:54.479Z,5.23
2018-04-16T16:02:57.020Z,5.20
2018-04-16T16:06:59.552Z,5.20
2018-04-16T16:11:02.067Z,4.67
2018-04-16T16:15:04.636Z,4.70
2018-04-16T16:19:07.933Z,4.87
2018-04-16T16:23:11.238Z,4.27
2018-04-16T16:27:14.552Z,4.10
2018-04-16T16:31:17.071Z,4.80
2018-04-16T16:35:19.603Z,4.80
2018-04-16T16:39:22.895Z,4.90
2018-04-16T16:43:25.416Z,5.00
2018-04-16T16:47:27.943Z,5.30
2018-04-16T16:51:30.451Z,5.63
2018-04-16T16:55:32.984Z,5.43
2018-04-16T16:59:35.518Z,5.60
2018-04-16T17:03:38.067Z,5.53
2018-04-16T17:07:40.591Z,5.20
2018-04-16T17:11:43.111Z,5.07
2018-04-16T17:15:45.640Z,5.33
2018-04-16T17:19:48.172Z,5.57
2018-04-16T17:23:50.705Z,5.57
2018-04-16T17:27:53.236Z,5.47
2018-04-16T17:31:55.762Z,4.87
2018-04-16T17:35:58.296Z,5.33
2018-04-16T17:40:01.591Z,5.50
2018-04-16T17:44:04.116Z,5.37
2018-04-16T17:48:06.656Z,6.77
2018-04-16T17:52:09.172Z,6.53
2018-04-16T17:56:11.710Z,6.23
2018-04-16T18:00:14.254Z,7.23
2018-04-16T18:04:16.810Z,7.77
2018-04-16T18:08:20.116Z,8.53
2018-04-16T18:12:23.413Z,7.37
2018-04-16T18:16:26.722Z,7.80
2018-04-16T18:20:30.027Z,8.23
2018-04-16T18:24:33.324Z,9.17
2018-04-16T18:28:36.619Z,8.20
2018-04-16T18:32:39.916Z,8.50
2018-04-16T18:36:42.428Z,8.23
2018-04-16T18:40:44.960Z,8.93
2018-04-16T18:44:47.493Z,9.50
2018-04-16T18:48:50.027Z,8.93
2018-04-16T18:52:52.564Z,9.37
2018-04-16T18:56:55.079Z,9.20
2018-04-16T19:00:57.613Z,8.83
2018-04-16T19:05:00.907Z,8.30
2018-04-16T19:09:03.439Z,8.63
2018-04-16T19:13:05.992Z,9.97
2018-04-16T19:17:09.286Z,10.00
2018-04-16T19:21:17.496Z,9.50
2018-04-16T19:25:20.020Z,8.80
2018-04-16T19:29:22.553Z,9.23
2018-04-16T19:33:30.763Z,8.70
2018-04-16T19:37:33.280Z,7.83
2018-04-16T19:41:41.484Z,10.40
2018-04-16T19:45:44.022Z,10.60
2018-04-16T19:49:52.106Z,11.97
2018-04-16T19:53:55.429Z,13.20
2018-04-16T19:58:03.651Z,13.80
2018-04-16T20:02:12.623Z,14.27
2018-04-16T20:06:15.180Z,15.37
2018-04-16T20:10:17.740Z,14.77
2018-04-16T20:14:20.291Z,15.77
2018-04-16T20:22:20.691Z,15.70
2018-04-16T20:26:23.255Z,16.30
2018-04-16T20:30:26.566Z,16.40
2018-04-16T20:34:29.909Z,15.60
2018-04-16T20:38:32.434Z,15.80
2018-04-16T20:42:35.742Z,14.77
2018-04-16T20:46:38.284Z,13.73
2018-04-16T20:50:40.837Z,14.13
2018-04-16T20:54:43.407Z,13.50
2018-04-16T20:58:46.700Z,15.00
2018-04-16T21:02:50.012Z,15.63
2018-04-16T21:06:52.615Z,17.73
2018-04-16T21:10:55.156Z,17.00
2018-04-16T21:14:57.719Z,15.50
2018-04-16T21:19:00.249Z,15.70
2018-04-16T21:23:03.551Z,15.90
2018-04-16T21:27:06.850Z,16.07
2018-04-16T21:31:10.167Z,13.97
2018-04-16T21:35:13.468Z,16.00
2018-04-16T21:39:16.756Z,14.27
2018-04-16T21:43:19.343Z,12.63
2018-04-16T21:47:22.651Z,13.63
2018-04-16T21:51:25.963Z,12.57
2018-04-16T21:55:29.498Z,12.03
2018-04-16T21:59:32.052Z,13.57
2018-04-16T22:03:35.345Z,13.07
2018-04-16T22:07:37.884Z,11.57
2018-04-16T22:11:40.649Z,10.57
2018-04-16T22:15:43.208Z,12.87
2018-04-16T22:19:46.534Z,11.33
2018-04-16T22:23:49.061Z,14.10
2018-04-16T22:27:51.611Z,12.30
2018-04-16T22:31:54.162Z,14.37
2018-04-16T22:35:56.708Z,16.23
2018-04-16T22:39:59.242Z,15.33
2018-04-16T22:44:01.764Z,8.00
2018-04-16T22:48:05.068Z,14.70
2018-04-16T22:52:07.608Z,15.73
2018-04-16T22:56:10.196Z,14.10
2018-04-16T23:00:13.505Z,13.73
2018-04-16T23:04:16.787Z,10.73
2018-04-16T23:08:19.325Z,11.37
2018-04-16T23:12:22.028Z,11.83
2018-04-16T23:16:24.558Z,10.30
2018-04-16T23:20:27.103Z,10.60
2018-04-16T23:24:29.633Z,13.60
2018-04-16T23:28:32.940Z,13.87
2018-04-16T23:32:35.476Z,10.33
2018-04-16T23:36:38.011Z,7.07
2018-04-16T23:40:41.308Z,6.50
2018-04-16T23:44:44.587Z,7.57
2018-04-16T23:48:47.128Z,11.57
2018-04-16T23:52:50.429Z,12.60
2018-04-16T23:56:52.963Z,11.10
